Kea — 9HA2207 — position and weather

sailwx.info

Track history (hours):
 
Tides and Currents Weather Stations Pressure Air Temp Water Temp Dewpoint Dewpoint Depression Visibility Wind Speed Wind Dir Waves Ship Positions

Kea

Last reported at 2014-Jul-30 02:33 UTC. Time now 2014-Jul-30 03:05 UTC.
Position N 30°55' W 124°36'.

Length 225 m; draft 12 m.

Type: Cargo ship. MMSI: 248150000.

Date/timePositionNaut miles runAvg speedWind from/ knotsBaromVisibWave heightAir tempDewpointWater temp
2014-Jul-30 02:33N 30°55' W 124°36'1111.0
2014-Jul-30 01:33N 30°48' W 124°26'1110.9
2014-Jul-30 00:33N 30°42' W 124°16'1111.2
2014-Jul-29 23:33N 30°34' W 124°06'1111.3
2014-Jul-29 22:33N 30°27' W 123°56'1411.5
2014-Jul-29 21:22N 30°18' W 123°44'911.6
2014-Jul-29 20:33N 30°12' W 123°35'1111.5
2014-Jul-29 19:33N 30°05' W 123°25'1211.7
2014-Jul-29 18:33N 29°57' W 123°15'1211.8
2014-Jul-29 17:33N 29°50' W 123°04'1211.9
2014-Jul-29 16:33N 29°42' W 122°54'1211.6
2014-Jul-29 15:33N 29°35' W 122°44'1111.3
2014-Jul-29 14:33N 29°28' W 122°34'1111.5
2014-Jul-29 13:33N 29°20' W 122°23'1211.6
2014-Jul-29 12:31N 29°13' W 122°13'1211.4
2014-Jul-29 11:30N 29°05' W 122°03'1111.3
2014-Jul-29 10:31N 28°58' W 121°53'1111.3
2014-Jul-29 09:30N 28°51' W 121°43'1111.5
2014-Jul-29 08:33N 28°44' W 121°33'1211.6
2014-Jul-29 07:33N 28°36' W 121°23'2311.6
2014-Jul-29 05:33N 28°21' W 121°03'1211.8
2014-Jul-29 04:33N 28°14' W 120°53'1211.7
2014-Jul-29 03:33N 28°06' W 120°42'1211.6
2014-Jul-29 02:33N 27°59' W 120°32'1111.4
2014-Jul-29 01:33N 27°52' W 120°22'1211.6
2014-Jul-29 00:31N 27°44' W 120°12'1212.5
2014-Jul-28 23:33N 27°36' W 120°02'1211.6
2014-Jul-28 22:33N 27°28' W 119°52'1711.6
2014-Jul-28 21:04N 27°17' W 119°37'1011.4
2014-Jul-28 20:09N 27°10' W 119°29'21811.5
2014-Jul-28 01:14N 24°44' W 116°29'  
Track history (hours):
 
Tides and Currents Weather Stations Pressure Air Temp Water Temp Dewpoint Dewpoint Depression Visibility Wind Speed Wind Dir Waves Ship Positions

Kea

Last reported at 2014-Jul-30 02:33 UTC. Time now 2014-Jul-30 03:05 UTC.
Position N 30°55' W 124°36'.

Length 225 m; draft 12 m.

Type: Cargo ship. MMSI: 248150000.

Date/timePositionNaut miles runAvg speedWind from/ knotsBaromVisibWave heightAir tempDewpointWater temp
2014-Jul-30 02:33N 30°55' W 124°36'1111.0
2014-Jul-30 01:33N 30°48' W 124°26'1110.9
2014-Jul-30 00:33N 30°42' W 124°16'1111.2
2014-Jul-29 23:33N 30°34' W 124°06'1111.3
2014-Jul-29 22:33N 30°27' W 123°56'1411.5
2014-Jul-29 21:22N 30°18' W 123°44'911.6
2014-Jul-29 20:33N 30°12' W 123°35'1111.5
2014-Jul-29 19:33N 30°05' W 123°25'1211.7
2014-Jul-29 18:33N 29°57' W 123°15'1211.8
2014-Jul-29 17:33N 29°50' W 123°04'1211.9
2014-Jul-29 16:33N 29°42' W 122°54'1211.6
2014-Jul-29 15:33N 29°35' W 122°44'1111.3
2014-Jul-29 14:33N 29°28' W 122°34'1111.5
2014-Jul-29 13:33N 29°20' W 122°23'1211.6
2014-Jul-29 12:31N 29°13' W 122°13'1211.4
2014-Jul-29 11:30N 29°05' W 122°03'1111.3
2014-Jul-29 10:31N 28°58' W 121°53'1111.3
2014-Jul-29 09:30N 28°51' W 121°43'1111.5
2014-Jul-29 08:33N 28°44' W 121°33'1211.6
2014-Jul-29 07:33N 28°36' W 121°23'2311.6
2014-Jul-29 05:33N 28°21' W 121°03'1211.8
2014-Jul-29 04:33N 28°14' W 120°53'1211.7
2014-Jul-29 03:33N 28°06' W 120°42'1211.6
2014-Jul-29 02:33N 27°59' W 120°32'1111.4
2014-Jul-29 01:33N 27°52' W 120°22'1211.6
2014-Jul-29 00:31N 27°44' W 120°12'1212.5
2014-Jul-28 23:33N 27°36' W 120°02'1211.6
2014-Jul-28 22:33N 27°28' W 119°52'1711.6
2014-Jul-28 21:04N 27°17' W 119°37'1011.4
2014-Jul-28 20:09N 27°10' W 119°29'21811.5
2014-Jul-28 01:14N 24°44' W 116°29'  

Dump ship's entire track history